Time;durP1;ratioP1;P1;durP2;ratioP2;P2;SDS_P1;SDS_P2;PMS_P1;PMS_P2;Temp;Humidity;BMP_temperature;BMP_pressure;BME280_temperature;BME280_humidity;BME280_pressure;Samples;Min_cycle;Max_cycle;Signal;HPM_P1;HPM_P2
2022/01/21 00:01:09;;;;;;;13.10;2.33;;;;;;;;;;4981912;28;20213;-61
2022/01/21 00:03:35;;;;;;;15.80;2.20;;;;;;;;;;4976223;28;20228;-61
2022/01/21 00:06:00;;;;;;;12.63;2.23;;;;;;;;;;4974672;28;20662;-61
2022/01/21 00:08:25;;;;;;;11.77;2.03;;;;;;;;;;4973561;28;20221;-61
2022/01/21 00:10:51;;;;;;;13.27;2.30;;;;;;;;;;4975694;28;20217;-61
2022/01/21 00:13:23;;;;;;;12.97;2.87;;;;;;;;;;4975451;28;20272;-62
2022/01/21 00:15:49;;;;;;;11.87;2.07;;;;;;;;;;4973811;28;20304;-61
2022/01/21 00:18:14;;;;;;;14.53;1.90;;;;;;;;;;4956358;28;20377;-61
2022/01/21 00:31:34;;;;;;;13.60;2.10;;;;;;;;;;4974317;28;20623;-61
2022/01/21 00:34:00;;;;;;;13.33;2.23;;;;;;;;;;4958166;28;20610;-61
2022/01/21 00:36:25;;;;;;;12.43;1.87;;;;;;;;;;4974094;28;20237;-61
2022/01/21 00:38:53;;;;;;;9.63;1.80;;;;;;;;;;4974992;28;20229;-61
2022/01/21 00:41:22;;;;;;;10.90;2.00;;;;;;;;;;4957475;28;20584;-61
2022/01/21 00:43:47;;;;;;;8.83;1.60;;;;;;;;;;4974499;28;20249;-61
2022/01/21 00:46:12;;;;;;;11.10;2.00;;;;;;;;;;4974493;28;20245;-61
2022/01/21 00:48:38;;;;;;;10.03;2.00;;;;;;;;;;4975093;28;20217;-61
2022/01/21 00:51:03;;;;;;;13.20;2.10;;;;;;;;;;4973840;28;20685;-61
2022/01/21 00:53:28;;;;;;;11.20;1.70;;;;;;;;;;4975262;28;20268;-61
2022/01/21 00:55:53;;;;;;;15.00;2.00;;;;;;;;;;4974951;28;20297;-61
2022/01/21 00:58:19;;;;;;;10.73;1.70;;;;;;;;;;4973920;28;20639;-61
2022/01/21 01:00:44;;;;;;;11.53;1.87;;;;;;;;;;4983718;28;20232;-61
2022/01/21 01:03:10;;;;;;;13.83;2.30;;;;;;;;;;4994175;28;20221;-61
2022/01/21 01:05:35;;;;;;;12.00;1.80;;;;;;;;;;4993327;28;20307;-61
2022/01/21 01:08:02;;;;;;;10.43;2.50;;;;;;;;;;4993980;28;20815;-61
2022/01/21 01:10:43;;;;;;;10.33;2.13;;;;;;;;;;4993375;28;20209;-61
2022/01/21 01:21:20;;;;;;;11.30;1.83;;;;;;;;;;4993281;28;20384;-61
2022/01/21 01:27:34;;;;;;;10.97;1.67;;;;;;;;;;4991810;28;20221;-61
2022/01/21 01:29:31;;;;;;;11.87;1.70;;;;;;;;;;4997965;28;20216;-61
2022/01/21 01:31:56;;;;;;;12.00;2.50;;;;;;;;;;5012395;28;20216;-60
2022/01/21 01:34:22;;;;;;;13.40;2.20;;;;;;;;;;5012883;28;20278;-61
2022/01/21 01:36:48;;;;;;;12.13;1.87;;;;;;;;;;5013003;28;20295;-61
2022/01/21 01:39:17;;;;;;;15.23;2.43;;;;;;;;;;5011848;28;20647;-61
2022/01/21 01:41:51;;;;;;;9.00;1.67;;;;;;;;;;5013093;28;20315;-61
2022/01/21 01:49:44;;;;;;;12.43;2.30;;;;;;;;;;5013283;28;20629;-61
2022/01/21 01:52:11;;;;;;;10.33;1.73;;;;;;;;;;5012376;28;20212;-61
2022/01/21 01:54:37;;;;;;;11.73;1.90;;;;;;;;;;4994578;28;20683;-61
2022/01/21 01:57:03;;;;;;;16.47;1.90;;;;;;;;;;5012353;28;20220;-61
2022/01/21 01:59:28;;;;;;;14.53;1.93;;;;;;;;;;4995554;28;20208;-61
2022/01/21 02:01:54;;;;;;;10.60;1.93;;;;;;;;;;4993558;28;20280;-61
2022/01/21 02:04:19;;;;;;;12.20;1.70;;;;;;;;;;4993132;28;20291;-61
2022/01/21 02:06:44;;;;;;;13.20;2.07;;;;;;;;;;4992366;28;20311;-61
2022/01/21 02:09:10;;;;;;;13.57;1.80;;;;;;;;;;4992717;28;20232;-61
2022/01/21 02:11:35;;;;;;;15.63;2.03;;;;;;;;;;4993268;28;20300;-61
2022/01/21 02:14:02;;;;;;;16.17;2.20;;;;;;;;;;4992598;28;20217;-61
2022/01/21 02:21:40;;;;;;;16.33;2.23;;;;;;;;;;4957810;28;20240;-61
2022/01/21 02:24:09;;;;;;;15.23;2.10;;;;;;;;;;5009245;28;20220;-61
2022/01/21 02:26:34;;;;;;;12.67;2.20;;;;;;;;;;4995005;28;20223;-61
2022/01/21 02:29:01;;;;;;;13.87;2.10;;;;;;;;;;5011956;28;20217;-61
2022/01/21 02:31:26;;;;;;;16.40;2.07;;;;;;;;;;5012179;28;20208;-61
2022/01/21 02:33:52;;;;;;;11.23;2.17;;;;;;;;;;5012488;28;20227;-61
2022/01/21 02:36:17;;;;;;;12.33;2.03;;;;;;;;;;5011386;28;20285;-61
2022/01/21 02:38:43;;;;;;;12.30;2.10;;;;;;;;;;5012339;28;20223;-61
2022/01/21 02:41:08;;;;;;;10.90;1.97;;;;;;;;;;5011907;28;20731;-61
2022/01/21 02:43:33;;;;;;;13.87;1.97;;;;;;;;;;4994015;28;20216;-61
2022/01/21 02:46:04;;;;;;;11.13;1.90;;;;;;;;;;5012502;28;20611;-61
2022/01/21 02:48:29;;;;;;;16.40;1.80;;;;;;;;;;5012150;28;20554;-61
2022/01/21 02:50:54;;;;;;;12.67;1.87;;;;;;;;;;5011946;28;20224;-61
2022/01/21 02:55:46;;;;;;;14.47;1.93;;;;;;;;;;5014733;28;20212;-61
2022/01/21 02:58:11;;;;;;;9.47;2.00;;;;;;;;;;5014702;28;20232;-61
2022/01/21 03:00:37;;;;;;;12.67;2.33;;;;;;;;;;5008057;28;20836;-61
2022/01/21 03:03:03;;;;;;;11.80;2.00;;;;;;;;;;4995119;28;20229;-61
2022/01/21 03:05:28;;;;;;;11.70;2.17;;;;;;;;;;4996348;28;20297;-61
2022/01/21 03:07:53;;;;;;;16.23;2.30;;;;;;;;;;4996095;28;20220;-61
2022/01/21 03:10:19;;;;;;;13.73;2.20;;;;;;;;;;4977667;28;20217;-61
2022/01/21 03:12:44;;;;;;;15.10;2.30;;;;;;;;;;4996081;28;20263;-61
2022/01/21 03:15:09;;;;;;;12.37;2.30;;;;;;;;;;4995933;28;20691;-61
2022/01/21 03:17:35;;;;;;;12.77;2.00;;;;;;;;;;4981648;28;20317;-61
2022/01/21 03:20:00;;;;;;;13.33;1.80;;;;;;;;;;4959141;28;20225;-61
2022/01/21 03:22:25;;;;;;;14.10;1.90;;;;;;;;;;4985681;28;20247;-61
2022/01/21 03:24:51;;;;;;;15.47;1.97;;;;;;;;;;5014933;28;20613;-61
2022/01/21 03:27:16;;;;;;;11.07;1.97;;;;;;;;;;5014944;28;20212;-61
2022/01/21 03:29:42;;;;;;;10.87;1.90;;;;;;;;;;5015644;28;20217;-61
2022/01/21 03:32:07;;;;;;;12.13;1.93;;;;;;;;;;5014417;28;20217;-61
2022/01/21 03:34:33;;;;;;;14.13;2.23;;;;;;;;;;5015414;28;20278;-61
2022/01/21 03:36:58;;;;;;;13.57;2.43;;;;;;;;;;5015576;28;20244;-61
2022/01/21 03:39:23;;;;;;;13.30;2.00;;;;;;;;;;5013972;28;20243;-61
2022/01/21 03:41:48;;;;;;;12.03;1.63;;;;;;;;;;5015190;28;20220;-61
2022/01/21 03:44:14;;;;;;;13.50;2.23;;;;;;;;;;5014766;28;20212;-61
2022/01/21 03:46:39;;;;;;;12.70;1.73;;;;;;;;;;5014496;28;20254;-61
2022/01/21 03:49:07;;;;;;;12.63;2.03;;;;;;;;;;5014549;28;20699;-61
2022/01/21 03:51:32;;;;;;;7.67;1.83;;;;;;;;;;5015234;28;20609;-61
2022/01/21 03:53:57;;;;;;;9.70;2.27;;;;;;;;;;5014265;28;20213;-61
2022/01/21 03:56:23;;;;;;;8.77;1.90;;;;;;;;;;5014639;28;20212;-61
2022/01/21 03:58:48;;;;;;;10.43;2.03;;;;;;;;;;5014766;28;20259;-61
2022/01/21 04:01:13;;;;;;;7.53;1.60;;;;;;;;;;5000647;28;20221;-61
2022/01/21 04:03:39;;;;;;;8.13;1.30;;;;;;;;;;4995223;28;20213;-61
2022/01/21 04:06:04;;;;;;;12.27;2.00;;;;;;;;;;4993819;28;20225;-61
2022/01/21 04:08:29;;;;;;;12.23;2.03;;;;;;;;;;4994448;28;20218;-60
2022/01/21 04:10:54;;;;;;;9.50;1.77;;;;;;;;;;4978037;28;20232;-61
2022/01/21 04:13:22;;;;;;;9.67;2.07;;;;;;;;;;4994193;28;20217;-61
2022/01/21 04:15:49;;;;;;;10.27;1.57;;;;;;;;;;4995253;28;20221;-61
2022/01/21 04:18:14;;;;;;;10.53;1.50;;;;;;;;;;4975428;28;20229;-61
2022/01/21 04:20:40;;;;;;;8.13;1.53;;;;;;;;;;4974679;28;20576;-61
2022/01/21 04:23:05;;;;;;;9.37;1.57;;;;;;;;;;4995044;28;20307;-61
2022/01/21 04:25:30;;;;;;;11.13;1.63;;;;;;;;;;5014552;28;20279;-60
2022/01/21 04:27:56;;;;;;;14.13;2.13;;;;;;;;;;5013771;28;20294;-61
2022/01/21 04:30:21;;;;;;;9.73;1.90;;;;;;;;;;5014156;28;20208;-61
2022/01/21 04:32:46;;;;;;;9.33;1.63;;;;;;;;;;4997010;28;20216;-61
2022/01/21 04:35:11;;;;;;;11.43;1.70;;;;;;;;;;5013101;28;20212;-61
2022/01/21 04:37:43;;;;;;;12.27;2.23;;;;;;;;;;5014170;28;20220;-61
2022/01/21 04:40:13;;;;;;;12.00;1.83;;;;;;;;;;5013848;28;20213;-61
2022/01/21 04:48:05;;;;;;;12.07;1.80;;;;;;;;;;5013994;28;20286;-60
2022/01/21 04:50:39;;;;;;;12.63;2.10;;;;;;;;;;5013462;28;20254;-60
2022/01/21 04:53:05;;;;;;;9.87;2.17;;;;;;;;;;5013889;28;20213;-61
2022/01/21 04:55:30;;;;;;;13.53;1.93;;;;;;;;;;5013580;28;20215;-61
2022/01/21 04:57:56;;;;;;;11.20;1.77;;;;;;;;;;5013323;28;20334;-61
2022/01/21 05:00:21;;;;;;;15.20;2.07;;;;;;;;;;5007197;28;20219;-60
2022/01/21 05:02:46;;;;;;;13.80;2.27;;;;;;;;;;4993879;28;20221;-60
2022/01/21 05:05:12;;;;;;;11.20;2.10;;;;;;;;;;4993732;28;20274;-60
2022/01/21 05:07:39;;;;;;;9.10;1.70;;;;;;;;;;4994032;28;20213;-61
2022/01/21 05:10:05;;;;;;;13.47;2.10;;;;;;;;;;4992910;28;20693;-60
2022/01/21 05:12:30;;;;;;;13.10;1.93;;;;;;;;;;4994373;28;20227;-60
2022/01/21 05:17:22;;;;;;;9.93;1.63;;;;;;;;;;4980777;28;20213;-60
2022/01/21 05:19:47;;;;;;;14.30;2.00;;;;;;;;;;4974450;28;20301;-60
2022/01/21 05:22:12;;;;;;;16.73;2.00;;;;;;;;;;4979879;28;20319;-61
2022/01/21 05:24:38;;;;;;;8.07;1.60;;;;;;;;;;5012971;28;20262;-60
2022/01/21 05:27:03;;;;;;;12.27;1.57;;;;;;;;;;4995565;28;20209;-61
2022/01/21 05:29:29;;;;;;;14.70;2.00;;;;;;;;;;4995564;28;20212;-61
2022/01/21 05:31:54;;;;;;;13.63;1.80;;;;;;;;;;5012569;28;20216;-60
2022/01/21 05:34:19;;;;;;;11.20;1.97;;;;;;;;;;5012810;28;20276;-61
2022/01/21 05:36:45;;;;;;;9.70;2.00;;;;;;;;;;5013397;28;20279;-60
2022/01/21 05:39:11;;;;;;;9.63;1.50;;;;;;;;;;5011843;28;20338;-60
2022/01/21 05:41:36;;;;;;;13.33;1.80;;;;;;;;;;4995824;28;20680;-60
2022/01/21 05:44:06;;;;;;;8.00;1.70;;;;;;;;;;5012502;28;20216;-60
2022/01/21 05:46:54;;;;;;;10.80;2.10;;;;;;;;;;5012108;28;20311;-60
2022/01/21 05:49:17;;;;;;;14.83;1.90;;;;;;;;;;4997704;28;20680;-59
2022/01/21 05:51:42;;;;;;;12.20;1.87;;;;;;;;;;5013177;28;20216;-61
2022/01/21 05:54:09;;;;;;;10.73;1.90;;;;;;;;;;5010827;28;20415;-60
2022/01/21 05:56:34;;;;;;;11.60;2.23;;;;;;;;;;4995248;28;20589;-60
2022/01/21 05:59:00;;;;;;;10.77;1.93;;;;;;;;;;5012013;28;20225;-60
2022/01/21 06:01:25;;;;;;;8.80;1.73;;;;;;;;;;4997344;28;20217;-61
2022/01/21 06:03:51;;;;;;;14.20;2.43;;;;;;;;;;4975903;28;20228;-60
2022/01/21 06:06:16;;;;;;;11.43;2.00;;;;;;;;;;4991967;28;20307;-60
2022/01/21 06:08:41;;;;;;;14.57;2.20;;;;;;;;;;4975705;28;20283;-60
2022/01/21 06:11:06;;;;;;;11.27;1.50;;;;;;;;;;4975304;28;20223;-60
2022/01/21 06:13:32;;;;;;;10.63;1.70;;;;;;;;;;4992355;28;20291;-60
2022/01/21 06:15:59;;;;;;;8.30;1.77;;;;;;;;;;4992419;28;20209;-60
2022/01/21 06:18:24;;;;;;;11.73;1.50;;;;;;;;;;4973387;28;20217;-60
2022/01/21 06:20:49;;;;;;;8.80;1.50;;;;;;;;;;4972680;28;20361;-60
2022/01/21 06:23:15;;;;;;;11.77;1.77;;;;;;;;;;4995919;28;20598;-60
2022/01/21 06:25:41;;;;;;;13.60;1.93;;;;;;;;;;5012537;28;20212;-60
2022/01/21 06:28:06;;;;;;;8.40;1.60;;;;;;;;;;5011405;28;20582;-61
2022/01/21 06:30:31;;;;;;;13.30;1.83;;;;;;;;;;5014812;28;20220;-60
2022/01/21 06:32:56;;;;;;;9.70;1.50;;;;;;;;;;5016564;28;20220;-61
2022/01/21 06:35:22;;;;;;;9.47;1.30;;;;;;;;;;4997828;28;20274;-60
2022/01/21 06:37:47;;;;;;;12.50;1.60;;;;;;;;;;5016501;28;20319;-60
2022/01/21 06:40:14;;;;;;;12.23;1.57;;;;;;;;;;4995420;28;20225;-60
2022/01/21 06:42:39;;;;;;;8.93;1.30;;;;;;;;;;4984756;28;20252;-60
2022/01/21 06:45:04;;;;;;;8.50;1.20;;;;;;;;;;4968956;28;20205;-61
2022/01/21 06:47:30;;;;;;;10.00;1.50;;;;;;;;;;4986819;28;20298;-61
2022/01/21 06:49:58;;;;;;;9.20;1.57;;;;;;;;;;4982590;28;20572;-60
2022/01/21 06:52:24;;;;;;;8.20;1.63;;;;;;;;;;4979277;28;20572;-59
2022/01/21 06:54:49;;;;;;;13.27;2.77;;;;;;;;;;4995020;28;20231;-60
2022/01/21 06:57:15;;;;;;;43.63;24.63;;;;;;;;;;4993839;28;20217;-60
2022/01/21 06:59:40;;;;;;;33.07;12.93;;;;;;;;;;4995868;28;20232;-60
2022/01/21 07:02:05;;;;;;;11.97;4.33;;;;;;;;;;4976348;28;20573;-60
2022/01/21 07:04:31;;;;;;;13.43;3.60;;;;;;;;;;4976475;28;20213;-60
2022/01/21 07:06:57;;;;;;;12.87;3.30;;;;;;;;;;4976630;28;20538;-61
2022/01/21 07:09:23;;;;;;;11.17;2.33;;;;;;;;;;4958665;28;20586;-61
2022/01/21 07:11:48;;;;;;;24.37;10.87;;;;;;;;;;4959773;28;20236;-59
2022/01/21 07:14:14;;;;;;;14.43;3.40;;;;;;;;;;4976616;28;20582;-61
2022/01/21 07:16:39;;;;;;;22.53;10.57;;;;;;;;;;4964339;28;20221;-60
2022/01/21 07:19:04;;;;;;;12.90;3.80;;;;;;;;;;4978438;28;20221;-62
2022/01/21 07:21:29;;;;;;;10.50;1.63;;;;;;;;;;4995780;28;20569;-64
2022/01/21 07:23:55;;;;;;;10.23;1.30;;;;;;;;;;5012351;28;20220;-62
2022/01/21 07:26:21;;;;;;;13.10;2.03;;;;;;;;;;5014909;28;20228;-61
2022/01/21 07:28:46;;;;;;;9.57;1.50;;;;;;;;;;5009994;28;20216;-61
2022/01/21 07:31:12;;;;;;;5.63;1.40;;;;;;;;;;5014012;28;20427;-63
2022/01/21 07:33:38;;;;;;;7.97;1.73;;;;;;;;;;4996729;28;20481;-63
2022/01/21 07:36:04;;;;;;;10.63;1.53;;;;;;;;;;4997517;28;20556;-62
2022/01/21 07:38:29;;;;;;;9.10;1.87;;;;;;;;;;5014661;28;20754;-62
2022/01/21 07:40:54;;;;;;;9.43;1.77;;;;;;;;;;4997604;28;20624;-62
2022/01/21 07:43:19;;;;;;;12.43;1.67;;;;;;;;;;5014576;28;20224;-61
2022/01/21 07:45:45;;;;;;;12.07;1.40;;;;;;;;;;5014319;28;20628;-65
2022/01/21 07:48:10;;;;;;;10.73;1.40;;;;;;;;;;4997066;28;20220;-65
2022/01/21 07:50:35;;;;;;;11.30;1.63;;;;;;;;;;4997844;28;20228;-66
2022/01/21 07:53:01;;;;;;;10.77;1.70;;;;;;;;;;4967230;28;20214;-64
2022/01/21 07:55:26;;;;;;;8.70;1.70;;;;;;;;;;4989810;28;20213;-66
2022/01/21 07:57:51;;;;;;;8.27;1.37;;;;;;;;;;4994576;28;20642;-66
2022/01/21 08:00:17;;;;;;;9.83;1.40;;;;;;;;;;4988590;28;20208;-66
2022/01/21 08:02:42;;;;;;;9.17;1.50;;;;;;;;;;4975873;28;20218;-66
2022/01/21 08:05:08;;;;;;;9.50;1.50;;;;;;;;;;4975526;28;20217;-65
2022/01/21 08:07:33;;;;;;;8.50;1.50;;;;;;;;;;4957590;28;20224;-66
2022/01/21 08:09:58;;;;;;;8.73;1.53;;;;;;;;;;4975797;28;20582;-66
2022/01/21 08:12:24;;;;;;;9.93;1.90;;;;;;;;;;4975251;28;20221;-66
2022/01/21 08:14:49;;;;;;;9.17;1.70;;;;;;;;;;4974792;28;20214;-66
2022/01/21 08:17:14;;;;;;;8.57;1.40;;;;;;;;;;4985570;28;20260;-66
2022/01/21 08:19:39;;;;;;;11.43;1.80;;;;;;;;;;4976860;28;20692;-66
2022/01/21 08:22:05;;;;;;;9.37;1.70;;;;;;;;;;4996172;28;20229;-65
2022/01/21 08:24:30;;;;;;;10.07;1.50;;;;;;;;;;5014506;28;20217;-66
2022/01/21 08:26:56;;;;;;;9.53;1.80;;;;;;;;;;5013571;28;20221;-66
2022/01/21 08:29:21;;;;;;;7.20;1.43;;;;;;;;;;5013597;28;20287;-66
2022/01/21 08:31:46;;;;;;;5.27;1.30;;;;;;;;;;5014339;28;20270;-66
2022/01/21 08:34:13;;;;;;;8.00;1.60;;;;;;;;;;5006935;28;20232;-65
2022/01/21 08:36:39;;;;;;;7.37;1.53;;;;;;;;;;4994397;28;20233;-65
2022/01/21 08:39:04;;;;;;;10.20;2.10;;;;;;;;;;4994154;28;20236;-65
2022/01/21 08:41:30;;;;;;;10.30;2.03;;;;;;;;;;4993774;28;20205;-65
2022/01/21 08:43:55;;;;;;;103.87;46.87;;;;;;;;;;4976979;28;20225;-66
2022/01/21 08:46:21;;;;;;;11.53;3.60;;;;;;;;;;4994311;28;20267;-65
2022/01/21 08:48:46;;;;;;;14.70;2.30;;;;;;;;;;4993766;28;20240;-66
2022/01/21 08:51:14;;;;;;;9.80;3.17;;;;;;;;;;4994184;28;20225;-65
2022/01/21 08:53:41;;;;;;;14.37;5.13;;;;;;;;;;4993990;28;20312;-65
2022/01/21 08:56:08;;;;;;;11.27;3.70;;;;;;;;;;4993147;28;20212;-65
2022/01/21 08:58:34;;;;;;;14.43;5.33;;;;;;;;;;4994052;28;20237;-65
2022/01/21 09:00:59;;;;;;;10.87;2.97;;;;;;;;;;4994353;28;20289;-66
2022/01/21 09:03:24;;;;;;;12.60;1.90;;;;;;;;;;4992811;28;20221;-65
2022/01/21 09:05:50;;;;;;;13.10;4.90;;;;;;;;;;4994270;28;20221;-65
2022/01/21 09:08:16;;;;;;;10.90;2.20;;;;;;;;;;4976376;28;20244;-65
2022/01/21 09:10:42;;;;;;;8.10;1.50;;;;;;;;;;4976097;28;20237;-65
2022/01/21 09:13:07;;;;;;;11.33;2.23;;;;;;;;;;4993395;28;20268;-65
2022/01/21 09:15:34;;;;;;;9.80;3.53;;;;;;;;;;4994281;28;20221;-65
2022/01/21 09:18:04;;;;;;;10.37;1.90;;;;;;;;;;4959241;28;20276;-66
2022/01/21 09:20:31;;;;;;;9.23;2.67;;;;;;;;;;4974139;28;20233;-65
2022/01/21 09:22:56;;;;;;;11.47;3.40;;;;;;;;;;4990952;28;20225;-66
2022/01/21 09:25:21;;;;;;;8.80;4.57;;;;;;;;;;5013152;28;20208;-66
2022/01/21 09:27:46;;;;;;;11.10;2.80;;;;;;;;;;5013231;28;20274;-67
2022/01/21 09:30:12;;;;;;;11.07;3.43;;;;;;;;;;5011928;28;20701;-67
2022/01/21 09:32:37;;;;;;;11.00;1.80;;;;;;;;;;5013358;28;20216;-67
2022/01/21 09:35:03;;;;;;;8.40;1.97;;;;;;;;;;5012953;28;20213;-66
2022/01/21 09:37:28;;;;;;;10.73;2.77;;;;;;;;;;5012356;28;20536;-66
2022/01/21 09:39:53;;;;;;;14.98;5.72;;;;;;;;;;5013282;28;20212;-67
2022/01/21 09:42:19;;;;;;;8.52;3.30;;;;;;;;;;5013167;28;20209;-66
2022/01/21 09:44:45;;;;;;;10.38;4.00;;;;;;;;;;4994956;28;20208;-67
2022/01/21 09:47:12;;;;;;;19.90;17.70;;;;;;;;;;4995087;28;20684;-67
2022/01/21 09:49:41;;;;;;;11.40;4.93;;;;;;;;;;5012847;28;20208;-67
2022/01/21 09:52:07;;;;;;;12.35;5.97;;;;;;;;;;5011777;28;20212;-66
2022/01/21 09:54:33;;;;;;;12.65;4.97;;;;;;;;;;5013096;28;20741;-67
2022/01/21 09:56:58;;;;;;;8.90;2.30;;;;;;;;;;5012772;28;20292;-66
2022/01/21 09:59:24;;;;;;;24.42;17.63;;;;;;;;;;5011706;28;20300;-66
2022/01/21 10:01:51;;;;;;;14.45;6.50;;;;;;;;;;4977491;28;20260;-67
2022/01/21 10:04:17;;;;;;;19.10;14.50;;;;;;;;;;4992037;28;20217;-66
2022/01/21 10:06:44;;;;;;;12.02;3.13;;;;;;;;;;4974965;28;20232;-66
2022/01/21 10:09:09;;;;;;;10.95;2.85;;;;;;;;;;4992764;28;20225;-66
2022/01/21 10:11:34;;;;;;;9.48;1.98;;;;;;;;;;4975730;28;20217;-66
2022/01/21 10:14:00;;;;;;;13.95;7.10;;;;;;;;;;4992580;28;20688;-67
2022/01/21 10:16:25;;;;;;;12.63;4.10;;;;;;;;;;4988693;28;20703;-67
2022/01/21 10:18:59;;;;;;;9.70;3.58;;;;;;;;;;4973396;28;20236;-66
2022/01/21 10:21:28;;;;;;;11.88;1.73;;;;;;;;;;4972162;28;20296;-66
2022/01/21 10:23:53;;;;;;;12.68;3.00;;;;;;;;;;4988917;28;20762;-66
2022/01/21 10:26:18;;;;;;;12.23;2.45;;;;;;;;;;4994103;28;20303;-66
2022/01/21 10:28:44;;;;;;;11.80;4.38;;;;;;;;;;4995040;28;20212;-66
2022/01/21 10:31:13;;;;;;;11.70;2.28;;;;;;;;;;5012123;28;20217;-66
2022/01/21 10:33:40;;;;;;;12.95;2.35;;;;;;;;;;5011561;28;20762;-66
2022/01/21 10:36:06;;;;;;;9.63;1.80;;;;;;;;;;5011930;28;20224;-66
2022/01/21 10:38:31;;;;;;;9.95;1.80;;;;;;;;;;5012354;28;20224;-66
2022/01/21 10:41:06;;;;;;;11.93;1.60;;;;;;;;;;4994234;28;20213;-66
2022/01/21 10:43:32;;;;;;;9.02;1.70;;;;;;;;;;5012188;28;20338;-66
2022/01/21 10:45:58;;;;;;;11.07;2.15;;;;;;;;;;5012304;28;20220;-66
2022/01/21 10:48:25;;;;;;;8.23;2.22;;;;;;;;;;4993455;28;20668;-66
2022/01/21 10:51:08;;;;;;;14.35;2.28;;;;;;;;;;5012412;28;20299;-66
2022/01/21 10:53:33;;;;;;;9.90;2.03;;;;;;;;;;4994443;28;20590;-66
2022/01/21 10:56:10;;;;;;;10.82;1.98;;;;;;;;;;5011637;28;20746;-66
2022/01/21 10:58:39;;;;;;;7.65;1.60;;;;;;;;;;4994385;28;20742;-66
2022/01/21 11:01:10;;;;;;;9.95;2.10;;;;;;;;;;5000099;28;20684;-66
2022/01/21 11:03:36;;;;;;;16.17;4.65;;;;;;;;;;4975456;28;20216;-66
2022/01/21 11:06:09;;;;;;;10.57;3.08;;;;;;;;;;4992152;28;20221;-65
2022/01/21 11:08:34;;;;;;;18.40;6.05;;;;;;;;;;4991823;28;20210;-66
2022/01/21 11:11:00;;;;;;;12.43;3.80;;;;;;;;;;4992556;28;20213;-66
2022/01/21 11:13:25;;;;;;;12.25;3.80;;;;;;;;;;4992047;28;20275;-66
2022/01/21 11:15:54;;;;;;;11.38;2.78;;;;;;;;;;4975525;28;20209;-66
2022/01/21 11:18:20;;;;;;;10.52;3.53;;;;;;;;;;4975989;28;20222;-66
2022/01/21 11:20:48;;;;;;;9.10;2.30;;;;;;;;;;4959624;28;20689;-66
2022/01/21 11:23:13;;;;;;;8.48;1.60;;;;;;;;;;4997410;28;20227;-66
2022/01/21 11:25:40;;;;;;;10.13;2.13;;;;;;;;;;4998281;28;20208;-66
2022/01/21 11:28:06;;;;;;;12.32;4.00;;;;;;;;;;5015203;28;20217;-66
2022/01/21 11:30:31;;;;;;;9.57;2.13;;;;;;;;;;5014886;28;20702;-66
2022/01/21 11:32:57;;;;;;;13.90;2.80;;;;;;;;;;5015773;28;20275;-66
2022/01/21 11:35:22;;;;;;;14.70;3.33;;;;;;;;;;5015032;28;20323;-66
2022/01/21 11:37:47;;;;;;;30.05;11.75;;;;;;;;;;5014584;28;20227;-66
2022/01/21 11:40:13;;;;;;;16.73;5.55;;;;;;;;;;5014860;28;20219;-66
2022/01/21 11:42:38;;;;;;;19.48;5.30;;;;;;;;;;4997918;28;20223;-66
2022/01/21 11:45:04;;;;;;;20.48;7.10;;;;;;;;;;4996626;28;20220;-65
2022/01/21 11:47:48;;;;;;;20.35;6.88;;;;;;;;;;5015276;28;20268;-66
2022/01/21 11:50:13;;;;;;;15.27;4.20;;;;;;;;;;4999760;28;20216;-66
2022/01/21 11:52:43;;;;;;;31.90;12.52;;;;;;;;;;5014576;28;20208;-66
2022/01/21 11:55:08;;;;;;;22.33;7.47;;;;;;;;;;5014447;28;20223;-66
2022/01/21 11:57:34;;;;;;;13.93;3.50;;;;;;;;;;4996606;28;20216;-66
2022/01/21 12:00:06;;;;;;;19.17;6.07;;;;;;;;;;5011719;28;20690;-66
2022/01/21 12:02:32;;;;;;;18.40;4.65;;;;;;;;;;4979043;28;20399;-66
2022/01/21 12:05:03;;;;;;;27.67;8.93;;;;;;;;;;4994469;28;20575;-66
2022/01/21 12:07:34;;;;;;;20.77;7.53;;;;;;;;;;4977461;28;20296;-66
2022/01/21 12:10:01;;;;;;;26.58;9.70;;;;;;;;;;4995326;28;20224;-66
2022/01/21 12:12:47;;;;;;;15.98;5.22;;;;;;;;;;4994350;28;20217;-66
2022/01/21 12:15:28;;;;;;;15.60;4.22;;;;;;;;;;4994813;28;20317;-66
2022/01/21 12:18:20;;;;;;;14.15;3.30;;;;;;;;;;4978844;28;20565;-66
2022/01/21 12:20:45;;;;;;;15.70;3.33;;;;;;;;;;4974618;28;20249;-66
2022/01/21 12:23:12;;;;;;;11.52;2.42;;;;;;;;;;4996390;28;20236;-66
2022/01/21 12:25:56;;;;;;;14.70;3.33;;;;;;;;;;5014312;28;20300;-66
2022/01/21 12:28:21;;;;;;;10.20;2.40;;;;;;;;;;5013047;28;20236;-66
2022/01/21 12:30:53;;;;;;;7.00;2.15;;;;;;;;;;5014610;28;20247;-66
2022/01/21 12:33:18;;;;;;;13.90;3.15;;;;;;;;;;5013533;28;20270;-65
2022/01/21 12:35:47;;;;;;;14.30;2.50;;;;;;;;;;5014429;28;20212;-66
2022/01/21 12:40:58;;;;;;;13.18;3.05;;;;;;;;;;4998226;28;20208;-66
2022/01/21 12:43:42;;;;;;;14.38;3.05;;;;;;;;;;5013668;28;20216;-66
2022/01/21 12:46:08;;;;;;;14.50;2.50;;;;;;;;;;5013867;28;20303;-65
2022/01/21 12:48:35;;;;;;;13.63;2.63;;;;;;;;;;4996038;28;20223;-66
2022/01/21 12:51:15;;;;;;;19.10;5.30;;;;;;;;;;4996549;28;20295;-64
2022/01/21 12:55:55;;;;;;;16.88;2.72;;;;;;;;;;4997584;28;20212;-66
2022/01/21 12:56:31;;;;;;;18.92;5.70;;;;;;;;;;5013503;28;20247;-66
2022/01/21 12:58:57;;;;;;;25.80;11.30;;;;;;;;;;4996437;28;20248;-66
2022/01/21 13:01:22;;;;;;;34.03;12.23;;;;;;;;;;4980947;28;20205;-66
2022/01/21 13:03:51;;;;;;;53.08;24.48;;;;;;;;;;4994217;28;20315;-66
2022/01/21 13:06:21;;;;;;;24.02;6.65;;;;;;;;;;4993803;28;20209;-66
2022/01/21 13:08:48;;;;;;;18.40;7.95;;;;;;;;;;4975941;28;20213;-66
2022/01/21 13:11:16;;;;;;;14.52;3.88;;;;;;;;;;4993599;28;20225;-66
2022/01/21 13:13:51;;;;;;;12.93;3.42;;;;;;;;;;4994146;28;20242;-66
2022/01/21 13:16:24;;;;;;;12.93;2.28;;;;;;;;;;4989606;28;20205;-66
2022/01/21 13:18:49;;;;;;;12.65;2.92;;;;;;;;;;4957262;28;20241;-66
2022/01/21 13:21:14;;;;;;;12.27;2.58;;;;;;;;;;4973745;28;20325;-66
2022/01/21 13:23:47;;;;;;;13.82;2.20;;;;;;;;;;5002869;28;20651;-66
2022/01/21 13:26:14;;;;;;;9.63;2.03;;;;;;;;;;4996196;28;20307;-66
2022/01/21 13:28:52;;;;;;;9.68;2.05;;;;;;;;;;5013280;28;20679;-66
2022/01/21 13:31:17;;;;;;;12.55;2.13;;;;;;;;;;4994398;28;20620;-66
2022/01/21 13:33:43;;;;;;;13.30;2.25;;;;;;;;;;5013496;28;20693;-66
2022/01/21 13:36:09;;;;;;;17.02;2.47;;;;;;;;;;4994487;28;20216;-66
2022/01/21 13:38:34;;;;;;;12.15;1.92;;;;;;;;;;5013187;28;20695;-66
2022/01/21 13:41:01;;;;;;;12.15;2.10;;;;;;;;;;5012911;28;20216;-66
2022/01/21 13:43:27;;;;;;;14.65;2.30;;;;;;;;;;5012080;28;20536;-66
2022/01/21 13:46:04;;;;;;;11.30;2.00;;;;;;;;;;5013371;28;20291;-66
2022/01/21 13:48:30;;;;;;;10.57;2.10;;;;;;;;;;5012803;28;20247;-66
2022/01/21 13:50:55;;;;;;;15.70;2.10;;;;;;;;;;5012316;28;20216;-66
2022/01/21 13:53:22;;;;;;;16.35;2.50;;;;;;;;;;5012707;28;20244;-66
2022/01/21 13:55:55;;;;;;;16.45;2.75;;;;;;;;;;5012647;28;20298;-66
2022/01/21 13:58:22;;;;;;;18.80;2.22;;;;;;;;;;4994230;28;20676;-65
2022/01/21 14:00:48;;;;;;;12.90;2.63;;;;;;;;;;4985726;28;20220;-66
2022/01/21 14:03:14;;;;;;;12.18;2.08;;;;;;;;;;4992794;28;20210;-65
2022/01/21 14:05:41;;;;;;;13.70;2.33;;;;;;;;;;4992434;28;20308;-66
2022/01/21 14:08:09;;;;;;;13.60;2.20;;;;;;;;;;4992634;28;20297;-66
2022/01/21 14:10:34;;;;;;;13.35;2.85;;;;;;;;;;4992962;28;20221;-66
2022/01/21 14:13:00;;;;;;;15.70;2.25;;;;;;;;;;4992456;28;20213;-66
2022/01/21 14:15:29;;;;;;;13.15;2.15;;;;;;;;;;4992887;28;20288;-66
2022/01/21 14:17:54;;;;;;;12.35;1.60;;;;;;;;;;4976914;28;20221;-66
2022/01/21 14:20:20;;;;;;;13.35;2.25;;;;;;;;;;4972283;28;20231;-66
2022/01/21 14:22:46;;;;;;;15.18;2.83;;;;;;;;;;4970631;28;20606;-66
2022/01/21 14:25:12;;;;;;;14.32;2.78;;;;;;;;;;5011931;28;20217;-66
2022/01/21 14:27:38;;;;;;;13.45;2.95;;;;;;;;;;5012105;28;20208;-66
2022/01/21 14:30:04;;;;;;;10.57;2.33;;;;;;;;;;5012004;28;20265;-65
2022/01/21 14:32:36;;;;;;;16.98;3.08;;;;;;;;;;4994264;28;20212;-66
2022/01/21 14:35:08;;;;;;;19.05;5.93;;;;;;;;;;5012046;28;20212;-65
2022/01/21 14:37:36;;;;;;;17.40;2.17;;;;;;;;;;5012406;28;20672;-66
2022/01/21 14:40:03;;;;;;;14.88;2.63;;;;;;;;;;4993705;28;20216;-65
2022/01/21 14:42:29;;;;;;;10.10;2.45;;;;;;;;;;5012640;28;20236;-66
2022/01/21 14:44:55;;;;;;;14.05;2.15;;;;;;;;;;5012565;28;20247;-66
2022/01/21 14:47:22;;;;;;;13.18;1.77;;;;;;;;;;5011136;28;20216;-66
2022/01/21 14:49:48;;;;;;;11.13;1.60;;;;;;;;;;4994852;28;20680;-66
2022/01/21 14:54:51;;;;;;;14.20;2.10;;;;;;;;;;5015707;28;20208;-66
2022/01/21 14:57:17;;;;;;;9.25;1.58;;;;;;;;;;5015356;28;20219;-66
2022/01/21 15:00:02;;;;;;;9.98;1.70;;;;;;;;;;4997635;28;20228;-66
2022/01/21 15:02:29;;;;;;;15.73;2.85;;;;;;;;;;4995219;28;20209;-66
2022/01/21 15:04:55;;;;;;;13.55;1.80;;;;;;;;;;4996552;28;20689;-66
2022/01/21 15:07:27;;;;;;;10.23;1.80;;;;;;;;;;4995853;28;20272;-66
2022/01/21 15:09:54;;;;;;;8.82;1.63;;;;;;;;;;4996434;28;20292;-66
2022/01/21 15:15:10;;;;;;;9.82;1.52;;;;;;;;;;4995169;28;20299;-66
2022/01/21 15:17:35;;;;;;;9.57;2.03;;;;;;;;;;4982592;28;20300;-66
2022/01/21 15:20:00;;;;;;;8.63;1.50;;;;;;;;;;4959184;28;20248;-65
2022/01/21 15:22:26;;;;;;;12.38;1.98;;;;;;;;;;4984586;28;20224;-65